Maine-Soroa, Niger
Current Conditions -  °F | °C
As of 5:00 PM on Tuesday 27 Jan 2015 (Local Time) from FTTJ Reporting Station
Clear Clear  
Wind Chill: 95°   Ceiling: Unl
Heat Index: 95°   Visibility: 4mi
Dew Point: 48°   Wind: 12mph
Humidity: 20%   Direction: 360°N
Pressure: 29.8"   Gusts: NA
Location:  13.21°N, 12.03°E
Report Text: FTTJ 271600Z 36010KT 330V030 6000 NSC 35/09 Q1009 NOSIG
Loading
Personal Weather Stations






























Interactive Weather Map New forecast layout! Learn more

10-Day Weather Forecast

Advertisements
Track Severe Weather on mobile